sensor_id;sensor_type;location;lat;lon;timestamp;temperature;humidity
45383;DHT22;42455;51.660;5.824;2023-02-28T00:01:53;2.6;79.5
45383;DHT22;42455;51.660;5.824;2023-02-28T00:06:58;2.6;79.5
45383;DHT22;42455;51.660;5.824;2023-02-28T00:12:05;2.6;79.5
45383;DHT22;42455;51.660;5.824;2023-02-28T00:17:11;2.6;79.5
45383;DHT22;42455;51.660;5.824;2023-02-28T00:22:19;2.5;79.5
45383;DHT22;42455;51.660;5.824;2023-02-28T00:27:22;2.5;79.5
45383;DHT22;42455;51.660;5.824;2023-02-28T00:32:28;2.5;79.5
45383;DHT22;42455;51.660;5.824;2023-02-28T00:37:35;2.5;80.0
45383;DHT22;42455;51.660;5.824;2023-02-28T00:42:41;2.5;79.5
45383;DHT22;42455;51.660;5.824;2023-02-28T00:47:47;2.4;80.0
45383;DHT22;42455;51.660;5.824;2023-02-28T00:52:53;2.4;80.0
45383;DHT22;42455;51.660;5.824;2023-02-28T00:57:59;2.4;80.0
45383;DHT22;42455;51.660;5.824;2023-02-28T01:03:06;2.4;80.0
45383;DHT22;42455;51.660;5.824;2023-02-28T01:08:13;2.4;80.0
45383;DHT22;42455;51.660;5.824;2023-02-28T01:13:18;2.4;80.0
45383;DHT22;42455;51.660;5.824;2023-02-28T01:18:25;2.4;80.5
45383;DHT22;42455;51.660;5.824;2023-02-28T01:23:30;2.4;80.5
45383;DHT22;42455;51.660;5.824;2023-02-28T01:28:37;2.3;80.5
45383;DHT22;42455;51.660;5.824;2023-02-28T01:33:44;2.3;80.5
45383;DHT22;42455;51.660;5.824;2023-02-28T01:38:50;2.3;80.5
45383;DHT22;42455;51.660;5.824;2023-02-28T01:44:05;2.2;80.5
45383;DHT22;42455;51.660;5.824;2023-02-28T01:49:07;2.2;80.5
45383;DHT22;42455;51.660;5.824;2023-02-28T01:54:15;2.2;80.5
45383;DHT22;42455;51.660;5.824;2023-02-28T01:59:18;2.2;80.5
45383;DHT22;42455;51.660;5.824;2023-02-28T02:04:21;2.2;80.5
45383;DHT22;42455;51.660;5.824;2023-02-28T02:09:25;2.2;80.5
45383;DHT22;42455;51.660;5.824;2023-02-28T02:15:22;2.1;80.5
45383;DHT22;42455;51.660;5.824;2023-02-28T02:20:38;2.1;81.0
45383;DHT22;42455;51.660;5.824;2023-02-28T02:27:22;2.1;81.0
45383;DHT22;42455;51.660;5.824;2023-02-28T02:35:01;2.2;81.5
45383;DHT22;42455;51.660;5.824;2023-02-28T02:39:34;2.2;81.5
45383;DHT22;42455;51.660;5.824;2023-02-28T02:43:26;2.3;82.0
45383;DHT22;42455;51.660;5.824;2023-02-28T02:47:01;2.4;82.0
45383;DHT22;42455;51.660;5.824;2023-02-28T02:50:21;2.4;82.0
45383;DHT22;42455;51.660;5.824;2023-02-28T02:55:22;0.0;0.0
45383;DHT22;42455;51.660;5.824;2023-02-28T03:00:34;2.6;82.0
45383;DHT22;42455;51.660;5.824;2023-02-28T03:05:41;2.6;82.0
45383;DHT22;42455;51.660;5.824;2023-02-28T03:10:41;2.7;82.0
45383;DHT22;42455;51.660;5.824;2023-02-28T03:16:42;2.7;82.5
45383;DHT22;42455;51.660;5.824;2023-02-28T03:22:14;2.7;82.5
45383;DHT22;42455;51.660;5.824;2023-02-28T03:26:29;2.8;82.5
45383;DHT22;42455;51.660;5.824;2023-02-28T03:31:10;2.8;82.5
45383;DHT22;42455;51.660;5.824;2023-02-28T03:36:20;2.9;82.5
45383;DHT22;42455;51.660;5.824;2023-02-28T03:41:25;2.9;82.5
45383;DHT22;42455;51.660;5.824;2023-02-28T03:46:37;3.0;82.5
45383;DHT22;42455;51.660;5.824;2023-02-28T03:51:31;3.0;82.5
45383;DHT22;42455;51.660;5.824;2023-02-28T03:56:43;3.0;82.5
45383;DHT22;42455;51.660;5.824;2023-02-28T04:01:43;3.1;82.5
45383;DHT22;42455;51.660;5.824;2023-02-28T04:06:50;3.1;82.5
45383;DHT22;42455;51.660;5.824;2023-02-28T04:11:53;3.2;82.5
45383;DHT22;42455;51.660;5.824;2023-02-28T04:16:59;3.2;82.5
45383;DHT22;42455;51.660;5.824;2023-02-28T04:22:04;3.2;82.5
45383;DHT22;42455;51.660;5.824;2023-02-28T04:27:10;3.3;82.0
45383;DHT22;42455;51.660;5.824;2023-02-28T04:32:16;3.3;82.0
45383;DHT22;42455;51.660;5.824;2023-02-28T04:37:22;3.3;82.0
45383;DHT22;42455;51.660;5.824;2023-02-28T04:42:29;3.4;82.0
45383;DHT22;42455;51.660;5.824;2023-02-28T04:47:35;3.4;82.0
45383;DHT22;42455;51.660;5.824;2023-02-28T04:52:41;3.4;82.0
45383;DHT22;42455;51.660;5.824;2023-02-28T04:57:47;3.4;82.0
45383;DHT22;42455;51.660;5.824;2023-02-28T05:02:53;3.5;82.0
45383;DHT22;42455;51.660;5.824;2023-02-28T05:08:00;3.5;82.0
45383;DHT22;42455;51.660;5.824;2023-02-28T05:13:06;3.5;82.0
45383;DHT22;42455;51.660;5.824;2023-02-28T05:18:12;3.5;82.0
45383;DHT22;42455;51.660;5.824;2023-02-28T05:23:21;3.5;82.0
45383;DHT22;42455;51.660;5.824;2023-02-28T05:28:24;3.5;82.0
45383;DHT22;42455;51.660;5.824;2023-02-28T05:33:31;3.5;82.0
45383;DHT22;42455;51.660;5.824;2023-02-28T05:38:37;3.5;82.0
45383;DHT22;42455;51.660;5.824;2023-02-28T05:43:43;3.5;81.5
45383;DHT22;42455;51.660;5.824;2023-02-28T05:48:49;3.5;81.5
45383;DHT22;42455;51.660;5.824;2023-02-28T05:53:58;3.5;81.5
45383;DHT22;42455;51.660;5.824;2023-02-28T05:59:02;3.5;81.5
45383;DHT22;42455;51.660;5.824;2023-02-28T06:04:10;3.5;81.5
45383;DHT22;42455;51.660;5.824;2023-02-28T06:09:13;3.5;81.5
45383;DHT22;42455;51.660;5.824;2023-02-28T06:14:20;3.5;81.5
45383;DHT22;42455;51.660;5.824;2023-02-28T06:19:25;3.5;81.5
45383;DHT22;42455;51.660;5.824;2023-02-28T06:24:31;3.5;81.5
45383;DHT22;42455;51.660;5.824;2023-02-28T06:29:37;3.5;81.5
45383;DHT22;42455;51.660;5.824;2023-02-28T06:34:43;3.5;81.5
45383;DHT22;42455;51.660;5.824;2023-02-28T06:39:49;3.5;81.5
45383;DHT22;42455;51.660;5.824;2023-02-28T06:44:56;3.5;81.5
45383;DHT22;42455;51.660;5.824;2023-02-28T06:50:03;3.5;81.5
45383;DHT22;42455;51.660;5.824;2023-02-28T06:55:08;3.5;81.5
45383;DHT22;42455;51.660;5.824;2023-02-28T07:00:15;3.5;81.5
45383;DHT22;42455;51.660;5.824;2023-02-28T07:05:21;3.5;81.5
45383;DHT22;42455;51.660;5.824;2023-02-28T07:10:27;3.5;81.5
45383;DHT22;42455;51.660;5.824;2023-02-28T07:15:33;3.5;81.5
45383;DHT22;42455;51.660;5.824;2023-02-28T07:20:39;3.6;81.5
45383;DHT22;42455;51.660;5.824;2023-02-28T07:25:46;3.6;81.5
45383;DHT22;42455;51.660;5.824;2023-02-28T07:30:52;3.6;81.5
45383;DHT22;42455;51.660;5.824;2023-02-28T07:35:59;3.7;81.5
45383;DHT22;42455;51.660;5.824;2023-02-28T07:41:04;3.7;81.5
45383;DHT22;42455;51.660;5.824;2023-02-28T07:46:13;3.8;81.0
45383;DHT22;42455;51.660;5.824;2023-02-28T07:51:16;3.8;81.0
45383;DHT22;42455;51.660;5.824;2023-02-28T07:56:23;3.8;81.0
45383;DHT22;42455;51.660;5.824;2023-02-28T08:01:29;3.8;81.0
45383;DHT22;42455;51.660;5.824;2023-02-28T08:06:34;3.8;81.0
45383;DHT22;42455;51.660;5.824;2023-02-28T08:11:40;3.9;80.5
45383;DHT22;42455;51.660;5.824;2023-02-28T08:16:46;3.9;80.5
45383;DHT22;42455;51.660;5.824;2023-02-28T08:21:53;4.0;80.5
45383;DHT22;42455;51.660;5.824;2023-02-28T08:26:59;4.1;80.0
45383;DHT22;42455;51.660;5.824;2023-02-28T08:32:06;4.1;79.5
45383;DHT22;42455;51.660;5.824;2023-02-28T08:37:11;4.2;79.5
45383;DHT22;42455;51.660;5.824;2023-02-28T08:42:17;4.3;79.0
45383;DHT22;42455;51.660;5.824;2023-02-28T08:47:24;4.3;79.0
45383;DHT22;42455;51.660;5.824;2023-02-28T08:52:30;4.4;79.0
45383;DHT22;42455;51.660;5.824;2023-02-28T08:57:36;4.5;78.5
45383;DHT22;42455;51.660;5.824;2023-02-28T09:02:42;4.6;78.5
45383;DHT22;42455;51.660;5.824;2023-02-28T09:07:49;4.7;78.0
45383;DHT22;42455;51.660;5.824;2023-02-28T09:12:55;4.9;78.0
45383;DHT22;42455;51.660;5.824;2023-02-28T09:18:01;5.0;77.5
45383;DHT22;42455;51.660;5.824;2023-02-28T09:23:09;5.1;77.0
45383;DHT22;42455;51.660;5.824;2023-02-28T09:28:13;5.3;77.0
45383;DHT22;42455;51.660;5.824;2023-02-28T09:33:20;5.4;76.5
45383;DHT22;42455;51.660;5.824;2023-02-28T09:38:27;5.6;76.5
45383;DHT22;42455;51.660;5.824;2023-02-28T09:43:38;5.7;75.5
45383;DHT22;42455;51.660;5.824;2023-02-28T09:48:44;5.8;75.0
45383;DHT22;42455;51.660;5.824;2023-02-28T09:53:44;6.0;74.5
45383;DHT22;42455;51.660;5.824;2023-02-28T09:58:55;6.1;74.0
45383;DHT22;42455;51.660;5.824;2023-02-28T10:04:52;6.3;74.0
45383;DHT22;42455;51.660;5.824;2023-02-28T10:09:11;6.4;73.0
45383;DHT22;42455;51.660;5.824;2023-02-28T10:14:13;6.5;72.5
45383;DHT22;42455;51.660;5.824;2023-02-28T10:19:26;6.6;72.0
45383;DHT22;42455;51.660;5.824;2023-02-28T10:24:30;6.8;71.5
45383;DHT22;42455;51.660;5.824;2023-02-28T10:29:26;6.9;70.5
45383;DHT22;42455;51.660;5.824;2023-02-28T10:34:31;7.0;70.5
45383;DHT22;42455;51.660;5.824;2023-02-28T10:39:45;7.1;70.0
45383;DHT22;42455;51.660;5.824;2023-02-28T10:44:44;7.2;69.5
45383;DHT22;42455;51.660;5.824;2023-02-28T10:49:50;7.3;69.0
45383;DHT22;42455;51.660;5.824;2023-02-28T10:55:20;7.3;69.0
45383;DHT22;42455;51.660;5.824;2023-02-28T11:00:14;7.4;68.5
45383;DHT22;42455;51.660;5.824;2023-02-28T11:05:26;7.5;68.0
45383;DHT22;42455;51.660;5.824;2023-02-28T11:10:20;7.5;68.0
45383;DHT22;42455;51.660;5.824;2023-02-28T11:15:33;7.6;67.5
45383;DHT22;42455;51.660;5.824;2023-02-28T11:20:33;7.7;68.0
45383;DHT22;42455;51.660;5.824;2023-02-28T11:25:37;7.9;67.0
45383;DHT22;42455;51.660;5.824;2023-02-28T11:30:45;7.9;66.0
45383;DHT22;42455;51.660;5.824;2023-02-28T11:35:48;8.0;66.5
45383;DHT22;42455;51.660;5.824;2023-02-28T11:41:39;8.1;66.5
45383;DHT22;42455;51.660;5.824;2023-02-28T11:46:52;8.2;65.5
45383;DHT22;42455;51.660;5.824;2023-02-28T11:52:00;8.2;65.5
45383;DHT22;42455;51.660;5.824;2023-02-28T11:56:48;8.2;64.5
45383;DHT22;42455;51.660;5.824;2023-02-28T12:02:25;8.3;65.0
45383;DHT22;42455;51.660;5.824;2023-02-28T12:07:20;8.4;65.0
45383;DHT22;42455;51.660;5.824;2023-02-28T12:11:56;8.5;65.0
45383;DHT22;42455;51.660;5.824;2023-02-28T12:17:32;8.6;65.0
45383;DHT22;42455;51.660;5.824;2023-02-28T12:22:43;8.7;64.5
45383;DHT22;42455;51.660;5.824;2023-02-28T12:27:44;8.8;63.5
45383;DHT22;42455;51.660;5.824;2023-02-28T12:32:03;8.8;63.0
45383;DHT22;42455;51.660;5.824;2023-02-28T12:37:02;8.8;63.0
45383;DHT22;42455;51.660;5.824;2023-02-28T12:42:07;8.8;61.5
45383;DHT22;42455;51.660;5.824;2023-02-28T12:47:15;8.7;61.0
45383;DHT22;42455;51.660;5.824;2023-02-28T12:52:19;8.7;62.5
45383;DHT22;42455;51.660;5.824;2023-02-28T12:57:30;8.8;62.0
45383;DHT22;42455;51.660;5.824;2023-02-28T13:04:26;8.9;61.5
45383;DHT22;42455;51.660;5.824;2023-02-28T13:09:19;8.9;61.5
45383;DHT22;42455;51.660;5.824;2023-02-28T13:12:48;9.0;61.0
45383;DHT22;42455;51.660;5.824;2023-02-28T13:17:51;9.1;60.5
45383;DHT22;42455;51.660;5.824;2023-02-28T13:22:55;9.1;60.0
45383;DHT22;42455;51.660;5.824;2023-02-28T13:28:01;9.1;60.5
45383;DHT22;42455;51.660;5.824;2023-02-28T13:33:23;9.1;60.0
45383;DHT22;42455;51.660;5.824;2023-02-28T13:38:23;9.2;60.0
45383;DHT22;42455;51.660;5.824;2023-02-28T13:43:19;9.2;59.5
45383;DHT22;42455;51.660;5.824;2023-02-28T13:48:26;9.2;59.5
45383;DHT22;42455;51.660;5.824;2023-02-28T13:54:18;9.2;59.5
45383;DHT22;42455;51.660;5.824;2023-02-28T13:59:34;9.3;60.0
45383;DHT22;42455;51.660;5.824;2023-02-28T14:05:13;9.3;60.0
45383;DHT22;42455;51.660;5.824;2023-02-28T14:08:57;9.3;59.0
45383;DHT22;42455;51.660;5.824;2023-02-28T14:13:54;9.3;59.0
45383;DHT22;42455;51.660;5.824;2023-02-28T14:19:12;9.3;58.5
45383;DHT22;42455;51.660;5.824;2023-02-28T14:25:32;9.3;59.0
45383;DHT22;42455;51.660;5.824;2023-02-28T14:31:03;9.3;58.0
45383;DHT22;42455;51.660;5.824;2023-02-28T14:35:55;9.3;58.5
45383;DHT22;42455;51.660;5.824;2023-02-28T14:39:26;9.3;59.0
45383;DHT22;42455;51.660;5.824;2023-02-28T14:44:32;9.3;59.0
45383;DHT22;42455;51.660;5.824;2023-02-28T14:49:42;9.4;58.5
45383;DHT22;42455;51.660;5.824;2023-02-28T14:54:45;9.4;59.0
45383;DHT22;42455;51.660;5.824;2023-02-28T14:59:57;9.4;59.0
45383;DHT22;42455;51.660;5.824;2023-02-28T15:04:58;9.4;59.0
45383;DHT22;42455;51.660;5.824;2023-02-28T15:10:06;9.4;59.0
45383;DHT22;42455;51.660;5.824;2023-02-28T15:15:13;9.4;59.0
45383;DHT22;42455;51.660;5.824;2023-02-28T15:20:15;9.5;59.0
45383;DHT22;42455;51.660;5.824;2023-02-28T15:25:22;9.4;58.0
45383;DHT22;42455;51.660;5.824;2023-02-28T15:30:29;9.4;57.5
45383;DHT22;42455;51.660;5.824;2023-02-28T15:35:34;9.3;58.0
45383;DHT22;42455;51.660;5.824;2023-02-28T15:40:42;9.2;58.5
45383;DHT22;42455;51.660;5.824;2023-02-28T15:45:47;9.2;58.5
45383;DHT22;42455;51.660;5.824;2023-02-28T15:50:54;9.2;58.5
45383;DHT22;42455;51.660;5.824;2023-02-28T15:56:00;9.1;58.5
45383;DHT22;42455;51.660;5.824;2023-02-28T16:01:07;9.1;58.5
45383;DHT22;42455;51.660;5.824;2023-02-28T16:06:33;9.0;58.5
45383;DHT22;42455;51.660;5.824;2023-02-28T16:11:15;8.9;58.0
45383;DHT22;42455;51.660;5.824;2023-02-28T16:16:23;8.8;58.5
45383;DHT22;42455;51.660;5.824;2023-02-28T16:21:27;8.7;58.5
45383;DHT22;42455;51.660;5.824;2023-02-28T16:26:34;8.6;58.5
45383;DHT22;42455;51.660;5.824;2023-02-28T16:31:40;8.5;58.5
45383;DHT22;42455;51.660;5.824;2023-02-28T16:36:48;8.3;59.0
45383;DHT22;42455;51.660;5.824;2023-02-28T16:41:52;8.2;59.0
45383;DHT22;42455;51.660;5.824;2023-02-28T16:46:59;8.1;59.0
45383;DHT22;42455;51.660;5.824;2023-02-28T16:52:05;7.9;59.5
45383;DHT22;42455;51.660;5.824;2023-02-28T16:57:17;7.8;59.5
45383;DHT22;42455;51.660;5.824;2023-02-28T17:02:18;7.7;59.5
45383;DHT22;42455;51.660;5.824;2023-02-28T17:07:23;7.5;60.0
45383;DHT22;42455;51.660;5.824;2023-02-28T17:12:28;7.4;60.0
45383;DHT22;42455;51.660;5.824;2023-02-28T17:17:35;7.3;60.0
45383;DHT22;42455;51.660;5.824;2023-02-28T17:22:41;7.1;60.5
45383;DHT22;42455;51.660;5.824;2023-02-28T17:27:47;7.0;61.0
45383;DHT22;42455;51.660;5.824;2023-02-28T17:32:53;6.8;61.0
45383;DHT22;42455;51.660;5.824;2023-02-28T17:38:00;6.6;61.0
45383;DHT22;42455;51.660;5.824;2023-02-28T17:43:06;6.5;61.5
45383;DHT22;42455;51.660;5.824;2023-02-28T17:48:12;6.4;61.5
45383;DHT22;42455;51.660;5.824;2023-02-28T17:53:17;6.3;61.5
45383;DHT22;42455;51.660;5.824;2023-02-28T17:58:23;6.2;62.0
45383;DHT22;42455;51.660;5.824;2023-02-28T18:03:29;6.1;62.0
45383;DHT22;42455;51.660;5.824;2023-02-28T18:08:36;6.0;62.5
45383;DHT22;42455;51.660;5.824;2023-02-28T18:13:43;5.9;62.5
45383;DHT22;42455;51.660;5.824;2023-02-28T18:18:49;5.8;63.0
45383;DHT22;42455;51.660;5.824;2023-02-28T18:23:54;5.8;63.0
45383;DHT22;42455;51.660;5.824;2023-02-28T18:29:01;5.7;63.0
45383;DHT22;42455;51.660;5.824;2023-02-28T18:34:07;5.6;63.5
45383;DHT22;42455;51.660;5.824;2023-02-28T18:39:14;5.5;63.5
45383;DHT22;42455;51.660;5.824;2023-02-28T18:44:19;5.4;63.5
45383;DHT22;42455;51.660;5.824;2023-02-28T18:49:25;5.3;64.0
45383;DHT22;42455;51.660;5.824;2023-02-28T18:54:32;5.2;64.0
45383;DHT22;42455;51.660;5.824;2023-02-28T18:59:38;5.1;64.0
45383;DHT22;42455;51.660;5.824;2023-02-28T19:04:44;5.0;64.0
45383;DHT22;42455;51.660;5.824;2023-02-28T19:09:50;4.9;64.5
45383;DHT22;42455;51.660;5.824;2023-02-28T19:14:56;4.9;64.5
45383;DHT22;42455;51.660;5.824;2023-02-28T19:20:03;4.7;65.0
45383;DHT22;42455;51.660;5.824;2023-02-28T19:25:09;4.7;65.0
45383;DHT22;42455;51.660;5.824;2023-02-28T19:30:15;4.6;65.0
45383;DHT22;42455;51.660;5.824;2023-02-28T19:35:21;4.5;65.0
45383;DHT22;42455;51.660;5.824;2023-02-28T19:40:26;4.3;65.0
45383;DHT22;42455;51.660;5.824;2023-02-28T19:45:37;4.2;65.5
45383;DHT22;42455;51.660;5.824;2023-02-28T19:50:38;4.1;65.5
45383;DHT22;42455;51.660;5.824;2023-02-28T19:55:45;4.0;65.5
45383;DHT22;42455;51.660;5.824;2023-02-28T20:00:49;3.9;66.0
45383;DHT22;42455;51.660;5.824;2023-02-28T20:05:58;3.7;66.0
45383;DHT22;42455;51.660;5.824;2023-02-28T20:11:03;3.6;66.5
45383;DHT22;42455;51.660;5.824;2023-02-28T20:16:13;3.6;66.5
45383;DHT22;42455;51.660;5.824;2023-02-28T20:21:14;3.5;66.5
45383;DHT22;42455;51.660;5.824;2023-02-28T20:26:20;3.4;67.0
45383;DHT22;42455;51.660;5.824;2023-02-28T20:31:27;3.3;67.5
45383;DHT22;42455;51.660;5.824;2023-02-28T20:36:33;3.3;67.5
45383;DHT22;42455;51.660;5.824;2023-02-28T20:41:39;3.2;68.0
45383;DHT22;42455;51.660;5.824;2023-02-28T20:46:45;3.2;68.0
45383;DHT22;42455;51.660;5.824;2023-02-28T20:51:51;3.2;68.0
45383;DHT22;42455;51.660;5.824;2023-02-28T20:56:58;3.2;68.0
45383;DHT22;42455;51.660;5.824;2023-02-28T21:02:04;3.1;68.5
45383;DHT22;42455;51.660;5.824;2023-02-28T21:07:10;3.1;68.5
45383;DHT22;42455;51.660;5.824;2023-02-28T21:12:16;3.1;68.5
45383;DHT22;42455;51.660;5.824;2023-02-28T21:17:23;3.1;69.0
45383;DHT22;42455;51.660;5.824;2023-02-28T21:22:29;3.1;69.0
45383;DHT22;42455;51.660;5.824;2023-02-28T21:27:35;3.1;69.0
45383;DHT22;42455;51.660;5.824;2023-02-28T21:32:41;3.0;69.0
45383;DHT22;42455;51.660;5.824;2023-02-28T21:37:47;3.0;69.0
45383;DHT22;42455;51.660;5.824;2023-02-28T21:42:53;3.0;69.5
45383;DHT22;42455;51.660;5.824;2023-02-28T21:47:59;3.0;69.5
45383;DHT22;42455;51.660;5.824;2023-02-28T21:53:05;3.0;69.5
45383;DHT22;42455;51.660;5.824;2023-02-28T21:58:11;2.9;69.5
45383;DHT22;42455;51.660;5.824;2023-02-28T22:03:16;2.9;70.0
45383;DHT22;42455;51.660;5.824;2023-02-28T22:08:23;2.9;69.5
45383;DHT22;42455;51.660;5.824;2023-02-28T22:13:29;2.9;70.0
45383;DHT22;42455;51.660;5.824;2023-02-28T22:18:37;2.8;70.0
45383;DHT22;42455;51.660;5.824;2023-02-28T22:23:42;2.8;70.0
45383;DHT22;42455;51.660;5.824;2023-02-28T22:28:48;2.7;70.0
45383;DHT22;42455;51.660;5.824;2023-02-28T22:33:56;2.6;70.0
45383;DHT22;42455;51.660;5.824;2023-02-28T22:39:00;2.6;70.0
45383;DHT22;42455;51.660;5.824;2023-02-28T22:44:06;2.5;70.0
45383;DHT22;42455;51.660;5.824;2023-02-28T22:49:12;2.4;70.0
45383;DHT22;42455;51.660;5.824;2023-02-28T22:54:19;2.3;70.0
45383;DHT22;42455;51.660;5.824;2023-02-28T22:59:25;2.2;70.5
45383;DHT22;42455;51.660;5.824;2023-02-28T23:04:31;2.1;70.5
45383;DHT22;42455;51.660;5.824;2023-02-28T23:09:37;2.1;70.5
45383;DHT22;42455;51.660;5.824;2023-02-28T23:14:43;2.0;70.5
45383;DHT22;42455;51.660;5.824;2023-02-28T23:19:49;1.9;71.0
45383;DHT22;42455;51.660;5.824;2023-02-28T23:24:56;1.8;71.0
45383;DHT22;42455;51.660;5.824;2023-02-28T23:30:02;1.8;71.0
45383;DHT22;42455;51.660;5.824;2023-02-28T23:35:09;1.7;71.5
45383;DHT22;42455;51.660;5.824;2023-02-28T23:40:15;1.7;71.5
45383;DHT22;42455;51.660;5.824;2023-02-28T23:45:21;1.7;71.5
45383;DHT22;42455;51.660;5.824;2023-02-28T23:50:26;1.6;71.5
45383;DHT22;42455;51.660;5.824;2023-02-28T23:55:32;1.6;71.5
